createdAt,value
2023-04-11T00:02:24.394Z,97594.95
2023-04-11T00:04:55.879Z,97591.45
2023-04-11T00:07:23.840Z,97588.00
2023-04-11T00:09:51.739Z,97588.46
2023-04-11T00:12:19.679Z,97586.11
2023-04-11T00:14:49.149Z,97586.42
2023-04-11T00:17:17.775Z,97584.48
2023-04-11T00:19:46.424Z,97581.83
2023-04-11T00:22:17.986Z,97575.86
2023-04-11T00:24:46.036Z,97573.31
2023-04-11T00:27:14.048Z,97571.91
2023-04-11T00:29:42.451Z,97573.64
2023-04-11T00:32:10.722Z,97576.80
2023-04-11T00:34:39.594Z,97577.00
2023-04-11T00:37:07.505Z,97574.69
2023-04-11T00:39:35.459Z,97574.17
2023-04-11T00:42:05.770Z,97573.79
2023-04-11T00:44:37.280Z,97580.23
2023-04-11T00:47:06.948Z,97577.84
2023-04-11T00:49:36.130Z,97581.94
2023-04-11T00:52:05.920Z,97584.74
2023-04-11T00:54:34.360Z,97584.25
2023-04-11T00:57:04.730Z,97585.80
2023-04-11T00:59:33.391Z,97585.38
2023-04-11T01:02:02.041Z,97580.77
2023-04-11T01:04:30.302Z,97579.20
2023-04-11T01:07:06.302Z,97578.62
2023-04-11T01:09:36.281Z,97579.98
2023-04-11T01:12:06.137Z,97580.27
2023-04-11T01:14:34.186Z,97577.59
2023-04-11T01:17:02.556Z,97573.34
2023-04-11T01:19:30.979Z,97572.23
2023-04-11T01:22:01.975Z,97573.02
2023-04-11T01:24:30.921Z,97567.98
2023-04-11T01:26:58.962Z,97569.91
2023-04-11T01:29:27.311Z,97565.76
2023-04-11T01:31:55.295Z,97565.85
2023-04-11T01:34:28.270Z,97562.91
2023-04-11T01:36:56.559Z,97560.94
2023-04-11T01:39:24.788Z,97557.92
2023-04-11T01:41:57.066Z,97559.96
2023-04-11T01:44:26.857Z,97560.95
2023-04-11T01:46:55.424Z,97562.89
2023-04-11T01:49:24.786Z,97561.80
2023-04-11T01:51:53.411Z,97570.07
2023-04-11T01:54:21.406Z,97568.13
2023-04-11T01:56:49.632Z,97565.25
2023-04-11T01:59:17.749Z,97562.95
2023-04-11T02:01:46.005Z,97562.83
2023-04-11T02:04:14.157Z,97558.16
2023-04-11T02:06:42.734Z,97557.84
2023-04-11T02:09:10.731Z,97560.93
2023-04-11T02:11:38.873Z,97555.61
2023-04-11T02:14:09.825Z,97549.17
2023-04-11T02:16:55.081Z,97548.00
2023-04-11T02:19:26.178Z,97548.54
2023-04-11T02:21:54.407Z,97548.64
2023-04-11T02:24:22.609Z,97543.53
2023-04-11T02:26:50.641Z,97542.20
2023-04-11T02:29:19.437Z,97535.60
2023-04-11T02:31:50.561Z,97534.83
2023-04-11T02:34:18.754Z,97531.10
2023-04-11T02:36:47.076Z,97526.81
2023-04-11T02:39:15.342Z,97523.52
2023-04-11T02:41:43.345Z,97524.54
2023-04-11T02:44:12.541Z,97523.16
2023-04-11T02:46:41.054Z,97522.62
2023-04-11T02:49:09.785Z,97524.48
2023-04-11T02:51:37.824Z,97520.94
2023-04-11T02:54:06.374Z,97523.30
2023-04-11T02:56:39.052Z,97524.17
2023-04-11T02:59:07.585Z,97529.39
2023-04-11T03:01:37.741Z,97526.81
2023-04-11T03:04:07.396Z,97525.30
2023-04-11T03:06:58.404Z,97523.97
2023-04-11T03:09:26.493Z,97523.88
2023-04-11T03:11:54.688Z,97529.17
2023-04-11T03:14:22.980Z,97523.83
2023-04-11T03:16:51.187Z,97522.38
2023-04-11T03:19:19.371Z,97515.83
2023-04-11T03:21:47.569Z,97515.30
2023-04-11T03:24:15.654Z,97511.95
2023-04-11T03:26:44.614Z,97512.93
2023-04-11T03:29:14.836Z,97513.81
2023-04-11T03:31:54.021Z,97514.86
2023-04-11T03:34:23.510Z,97515.02
2023-04-11T03:36:52.743Z,97514.83
2023-04-11T03:39:22.086Z,97518.42
2023-04-11T03:41:51.040Z,97517.64
2023-04-11T03:44:20.022Z,97510.60
2023-04-11T03:46:48.716Z,97511.40
2023-04-11T03:49:17.249Z,97507.86
2023-04-11T03:51:46.472Z,97511.31
2023-04-11T03:54:15.390Z,97519.92
2023-04-11T03:56:44.091Z,97520.71
2023-04-11T03:59:17.754Z,97519.52
2023-04-11T04:01:53.887Z,97524.15
2023-04-11T04:04:22.640Z,97529.55
2023-04-11T04:06:57.938Z,97522.83
2023-04-11T04:09:31.939Z,97516.88
2023-04-11T04:12:01.875Z,97514.91
2023-04-11T04:14:40.805Z,97511.12
2023-04-11T04:17:10.488Z,97513.52
2023-04-11T04:19:39.509Z,97513.84
2023-04-11T04:22:17.792Z,97514.92
2023-04-11T04:24:50.248Z,97514.92
2023-04-11T04:27:25.065Z,97513.41
2023-04-11T04:30:03.775Z,97515.73
2023-04-11T04:32:45.104Z,97511.55
2023-04-11T04:35:16.781Z,97509.80
2023-04-11T04:37:45.895Z,97510.77
2023-04-11T04:40:21.472Z,97510.62
2023-04-11T04:42:58.868Z,97510.54
2023-04-11T04:45:58.437Z,97506.69
2023-04-11T04:48:34.952Z,97508.58
2023-04-11T04:51:05.372Z,97509.03
2023-04-11T04:53:38.808Z,97509.90
2023-04-11T04:56:09.669Z,97508.50
2023-04-11T04:58:40.772Z,97506.38
2023-04-11T05:01:11.511Z,97512.48
2023-04-11T05:03:40.249Z,97512.96
2023-04-11T05:06:14.000Z,97514.60
2023-04-11T05:08:44.954Z,97513.42
2023-04-11T05:11:13.391Z,97515.36
2023-04-11T05:13:42.759Z,97514.20
2023-04-11T05:16:11.390Z,97516.02
2023-04-11T05:18:42.986Z,97513.23
2023-04-11T05:21:11.951Z,97509.56
2023-04-11T05:23:43.187Z,97510.74
2023-04-11T05:26:11.674Z,97502.22
2023-04-11T05:28:41.658Z,97503.14
2023-04-11T05:31:12.468Z,97501.46
2023-04-11T05:33:42.182Z,97496.70
2023-04-11T05:36:17.123Z,97494.80
2023-04-11T05:38:46.856Z,97494.84
2023-04-11T05:41:15.001Z,97489.70
2023-04-11T05:43:43.191Z,97485.73
2023-04-11T05:46:12.869Z,97483.45
2023-04-11T05:48:41.685Z,97478.11
2023-04-11T05:51:11.759Z,97473.88
2023-04-11T05:53:40.165Z,97471.73
2023-04-11T05:56:09.840Z,97467.79
2023-04-11T05:58:39.043Z,97463.70
2023-04-11T06:01:07.621Z,97462.91
2023-04-11T06:03:36.042Z,97463.01
2023-04-11T06:06:04.566Z,97458.97
2023-04-11T06:08:32.729Z,97455.98
2023-04-11T06:11:00.729Z,97456.04
2023-04-11T06:13:28.948Z,97456.09
2023-04-11T06:15:57.077Z,97454.73
2023-04-11T06:18:25.720Z,97451.93
2023-04-11T06:20:54.596Z,97450.48
2023-04-11T06:23:22.850Z,97453.45
2023-04-11T06:25:51.804Z,97448.86
2023-04-11T06:28:22.454Z,97445.72
2023-04-11T06:30:53.320Z,97446.24
2023-04-11T06:33:24.954Z,97447.68
2023-04-11T06:35:53.975Z,97441.27
2023-04-11T06:38:22.564Z,97434.75
2023-04-11T06:40:54.727Z,97434.23
2023-04-11T06:43:22.725Z,97435.29
2023-04-11T06:45:51.725Z,97430.15
2023-04-11T06:48:21.281Z,97430.87
2023-04-11T06:50:49.560Z,97424.70
2023-04-11T06:53:17.698Z,97420.71
2023-04-11T06:55:50.120Z,97422.80
2023-04-11T06:58:18.194Z,97417.04
2023-04-11T07:00:46.293Z,97417.79
2023-04-11T07:03:15.268Z,97416.80
2023-04-11T07:05:43.896Z,97414.79
2023-04-11T07:08:12.702Z,97413.68
2023-04-11T07:10:41.265Z,97413.61
2023-04-11T07:13:16.125Z,97415.56
2023-04-11T07:15:44.656Z,97416.64
2023-04-11T07:18:14.567Z,97418.70
2023-04-11T07:20:43.390Z,97417.02
2023-04-11T07:23:12.218Z,97415.84
2023-04-11T07:25:45.005Z,97417.02
2023-04-11T07:28:13.776Z,97411.80
2023-04-11T07:30:42.589Z,97409.17
2023-04-11T07:33:10.631Z,97405.07
2023-04-11T07:35:38.725Z,97404.58
2023-04-11T07:38:09.479Z,97398.91
2023-04-11T07:40:37.817Z,97398.20
2023-04-11T07:43:08.014Z,97396.97
2023-04-11T07:45:37.351Z,97395.92
2023-04-11T07:48:06.152Z,97390.92
2023-04-11T07:50:34.686Z,97390.79
2023-04-11T07:53:03.586Z,97386.39
2023-04-11T07:55:31.728Z,97382.08
2023-04-11T07:58:02.039Z,97380.92
2023-04-11T08:00:32.814Z,97375.10
2023-04-11T08:03:05.168Z,97370.64
2023-04-11T08:05:36.065Z,97372.72
2023-04-11T08:08:06.508Z,97373.81
2023-04-11T08:10:34.889Z,97370.02
2023-04-11T08:13:04.611Z,97365.38
2023-04-11T08:15:35.050Z,97362.33
2023-04-11T08:18:05.037Z,97357.05
2023-04-11T08:20:33.307Z,97349.50
2023-04-11T08:23:06.491Z,97348.57
2023-04-11T08:25:36.893Z,97342.89
2023-04-11T08:28:11.096Z,97339.09
2023-04-11T08:30:40.493Z,97340.82
2023-04-11T08:33:10.307Z,97340.98
2023-04-11T08:35:43.022Z,97335.90
2023-04-11T08:38:11.502Z,97327.38
2023-04-11T08:40:39.915Z,97326.73
2023-04-11T08:43:12.405Z,97323.10
2023-04-11T08:45:41.808Z,97315.72
2023-04-11T08:48:12.852Z,97313.98
2023-04-11T08:50:42.607Z,97310.52
2023-04-11T08:53:11.661Z,97304.38
2023-04-11T08:55:51.132Z,97302.19
2023-04-11T08:58:20.847Z,97300.91
2023-04-11T09:00:50.088Z,97295.20
2023-04-11T09:03:19.186Z,97286.40
2023-04-11T09:05:47.639Z,97280.83
2023-04-11T09:08:17.159Z,97278.70
2023-04-11T09:10:46.187Z,97272.77
2023-04-11T09:13:24.096Z,97262.91
2023-04-11T09:16:13.020Z,97255.20
2023-04-11T09:18:47.467Z,97250.96
2023-04-11T09:21:17.060Z,97250.10
2023-04-11T09:23:45.549Z,97247.00
2023-04-11T09:26:26.408Z,97245.78
2023-04-11T09:28:55.428Z,97239.29
2023-04-11T09:31:40.669Z,97232.89
2023-04-11T09:34:09.515Z,97232.40
2023-04-11T09:36:39.021Z,97227.29
2023-04-11T09:39:18.346Z,97223.85
2023-04-11T09:41:46.737Z,97225.17
2023-04-11T09:44:15.946Z,97218.65
2023-04-11T09:46:57.298Z,97214.84
2023-04-11T09:49:28.058Z,97207.60
2023-04-11T09:51:57.809Z,97205.74
2023-04-11T09:54:27.854Z,97195.23
2023-04-11T09:56:58.839Z,97189.16
2023-04-11T09:59:27.733Z,97186.48
2023-04-11T10:01:57.757Z,97184.68
2023-04-11T10:04:28.989Z,97175.66
2023-04-11T10:07:07.851Z,97171.52
2023-04-11T10:09:40.770Z,97172.64
2023-04-11T10:12:10.336Z,97166.56
2023-04-11T10:14:38.845Z,97162.97
2023-04-11T10:17:22.955Z,97156.25
2023-04-11T10:19:57.085Z,97152.82
2023-04-11T10:22:43.949Z,97149.42
2023-04-11T10:25:19.747Z,97148.73
2023-04-11T10:27:49.246Z,97147.75
2023-04-11T10:30:17.475Z,97146.99
2023-04-11T10:33:16.731Z,97146.67
2023-04-11T10:36:02.263Z,97144.12
2023-04-11T10:38:49.361Z,97138.84
2023-04-11T10:41:33.324Z,97131.77
2023-04-11T10:44:21.517Z,97128.09
2023-04-11T10:46:52.563Z,97121.17
2023-04-11T10:49:39.408Z,97119.79
2023-04-11T10:52:21.872Z,97117.36
2023-04-11T10:54:52.354Z,97112.67
2023-04-11T10:57:21.789Z,97114.48
2023-04-11T10:59:49.966Z,97108.18
2023-04-11T11:02:22.039Z,97105.68
2023-04-11T11:04:53.200Z,97103.73
2023-04-11T11:07:22.578Z,97098.58
2023-04-11T11:09:51.524Z,97098.73
2023-04-11T11:12:19.923Z,97089.47
2023-04-11T11:14:48.937Z,97089.87
2023-04-11T11:17:18.536Z,97084.14
2023-04-11T11:19:48.345Z,97074.80
2023-04-11T11:22:18.709Z,97073.84
2023-04-11T11:24:46.817Z,97067.27
2023-04-11T11:27:20.335Z,97064.92
2023-04-11T11:29:51.937Z,97059.70
2023-04-11T11:32:28.246Z,97053.27
2023-04-11T11:37:46.540Z,97047.69
2023-04-11T11:40:15.860Z,97042.83
2023-04-11T11:42:44.213Z,97039.88
2023-04-11T11:45:19.969Z,97035.08
2023-04-11T11:47:49.859Z,97034.77
2023-04-11T11:50:34.824Z,97028.71
2023-04-11T11:53:16.544Z,97022.27
2023-04-11T11:55:44.867Z,97015.13
2023-04-11T11:58:13.713Z,97014.91
2023-04-11T12:00:42.501Z,97014.05
2023-04-11T12:03:11.303Z,97011.65
2023-04-11T12:05:42.661Z,97004.70
2023-04-11T12:08:11.119Z,97006.35
2023-04-11T12:10:45.963Z,96998.19
2023-04-11T12:13:27.111Z,97002.81
2023-04-11T12:16:00.931Z,96999.32
2023-04-11T12:18:29.108Z,96994.52
2023-04-11T12:21:00.449Z,96990.20
2023-04-11T12:23:34.520Z,96989.82
2023-04-11T12:26:04.500Z,96987.56
2023-04-11T12:28:32.967Z,96983.56
2023-04-11T12:31:01.086Z,96987.16
2023-04-11T12:33:32.630Z,96983.40
2023-04-11T12:36:01.945Z,96981.34
2023-04-11T12:38:30.260Z,96975.95
2023-04-11T12:41:19.903Z,96970.73
2023-04-11T12:43:46.802Z,96963.50
2023-04-11T12:46:15.536Z,96958.94
2023-04-11T12:48:44.362Z,96955.30
2023-04-11T12:51:14.146Z,96953.02
2023-04-11T12:53:42.723Z,96946.98
2023-04-11T12:56:10.801Z,96942.06
2023-04-11T12:58:38.880Z,96942.40
2023-04-11T13:01:07.530Z,96937.58
2023-04-11T13:03:35.790Z,96930.98
2023-04-11T13:06:07.778Z,96926.92
2023-04-11T13:08:35.906Z,96925.86
2023-04-11T13:11:04.279Z,96919.58
2023-04-11T13:13:32.299Z,96911.36
2023-04-11T13:16:00.646Z,96901.38
2023-04-11T13:18:29.702Z,96893.44
2023-04-11T13:20:58.103Z,96891.63
2023-04-11T13:23:26.268Z,96885.48
2023-04-11T13:25:54.321Z,96884.48
2023-04-11T13:28:22.460Z,96888.63
2023-04-11T13:30:54.437Z,96886.10
2023-04-11T13:33:23.050Z,96885.14
2023-04-11T13:35:51.091Z,96882.32
2023-04-11T13:38:19.236Z,96882.16
2023-04-11T13:40:47.343Z,96879.83
2023-04-11T13:43:15.435Z,96879.52
2023-04-11T13:45:43.640Z,96878.45
2023-04-11T13:48:14.497Z,96873.91
2023-04-11T13:50:42.993Z,96874.55
2023-04-11T13:53:11.295Z,96875.08
2023-04-11T13:55:39.580Z,96872.89
2023-04-11T13:58:08.022Z,96875.54
2023-04-11T14:00:37.030Z,96868.73
2023-04-11T14:03:05.218Z,96869.39
2023-04-11T14:05:35.665Z,96869.91
2023-04-11T14:08:05.381Z,96868.17
2023-04-11T14:10:33.981Z,96864.95
2023-04-11T14:13:02.569Z,96864.06
2023-04-11T14:15:31.724Z,96863.56
2023-04-11T14:18:03.456Z,96858.48
2023-04-11T14:20:32.036Z,96858.84
2023-04-11T14:23:05.354Z,96854.11
2023-04-11T14:25:33.768Z,96851.67
2023-04-11T14:28:02.724Z,96855.04
2023-04-11T14:30:32.183Z,96850.48
2023-04-11T14:33:02.111Z,96842.11
2023-04-11T14:35:32.629Z,96846.84
2023-04-11T14:38:03.030Z,96844.09
2023-04-11T14:40:31.253Z,96842.52
2023-04-11T14:42:59.461Z,96835.64
2023-04-11T14:45:28.142Z,96830.63
2023-04-11T14:47:57.338Z,96834.48
2023-04-11T14:50:27.002Z,96836.16
2023-04-11T14:52:56.090Z,96834.67
2023-04-11T14:55:25.020Z,96833.24
2023-04-11T14:57:58.907Z,96834.39
2023-04-11T15:00:27.933Z,96836.73
2023-04-11T15:02:57.723Z,96836.69
2023-04-11T15:05:27.146Z,96832.14
2023-04-11T15:07:55.772Z,96834.29
2023-04-11T15:10:25.940Z,96838.98
2023-04-11T15:12:56.362Z,96836.07
2023-04-11T15:15:24.520Z,96834.08
2023-04-11T15:18:26.969Z,96834.01
2023-04-11T15:20:57.140Z,96832.86
2023-04-11T15:23:26.932Z,96830.45
2023-04-11T15:26:03.500Z,96829.78
2023-04-11T15:28:34.362Z,96826.10
2023-04-11T15:31:07.292Z,96827.80
2023-04-11T15:33:36.861Z,96824.92
2023-04-11T15:36:05.796Z,96823.77
2023-04-11T15:38:38.019Z,96820.55
2023-04-11T15:41:07.863Z,96819.27
2023-04-11T15:43:37.457Z,96815.50
2023-04-11T15:46:08.988Z,96815.37
2023-04-11T15:48:38.587Z,96813.30
2023-04-11T15:51:11.521Z,96815.83
2023-04-11T15:53:40.441Z,96820.08
2023-04-11T15:56:08.761Z,96819.68
2023-04-11T15:58:39.219Z,96819.36
2023-04-11T16:01:07.513Z,96817.67
2023-04-11T16:03:36.005Z,96819.84
2023-04-11T16:06:05.978Z,96822.05
2023-04-11T16:08:34.379Z,96821.52
2023-04-11T16:11:02.562Z,96818.13
2023-04-11T16:13:32.524Z,96817.77
2023-04-11T16:16:01.234Z,96818.57
2023-04-11T16:18:30.120Z,96811.52
2023-04-11T16:20:59.432Z,96821.98
2023-04-11T16:23:27.780Z,96825.80
2023-04-11T16:25:56.631Z,96817.34
2023-04-11T16:28:24.666Z,96821.75
2023-04-11T16:30:53.103Z,96827.34
2023-04-11T16:33:22.055Z,96829.17
2023-04-11T16:35:50.137Z,96835.98
2023-04-11T16:38:18.507Z,96839.95
2023-04-11T16:40:46.834Z,96841.25
2023-04-11T16:43:16.695Z,96834.36
2023-04-11T16:45:46.772Z,96839.95
2023-04-11T16:48:15.170Z,96837.23
2023-04-11T16:50:44.906Z,96849.54
2023-04-11T16:53:13.149Z,96849.60
2023-04-11T16:55:41.225Z,96849.52
2023-04-11T16:58:12.472Z,96850.27
2023-04-11T17:00:40.850Z,96862.98
2023-04-11T17:03:09.279Z,96850.80
2023-04-11T17:05:39.326Z,96855.52
2023-04-11T17:08:07.826Z,96860.99
2023-04-11T17:10:39.519Z,96865.20
2023-04-11T17:13:08.690Z,96860.97
2023-04-11T17:15:37.815Z,96863.30
2023-04-11T17:18:06.404Z,96862.48
2023-04-11T17:20:37.203Z,96862.77
2023-04-11T17:23:05.433Z,96863.02
2023-04-11T17:25:33.806Z,96866.88
2023-04-11T17:28:02.212Z,96864.59
2023-04-11T17:30:31.952Z,96861.00
2023-04-11T17:33:03.763Z,96866.20
2023-04-11T17:35:32.749Z,96871.45
2023-04-11T17:38:01.956Z,96868.88
2023-04-11T17:40:30.652Z,96867.89
2023-04-11T17:43:00.168Z,96869.19
2023-04-11T17:45:30.497Z,96870.79
2023-04-11T17:47:59.289Z,96874.16
2023-04-11T17:50:31.877Z,96876.60
2023-04-11T17:53:00.665Z,96883.38
2023-04-11T17:55:29.141Z,96881.41
2023-04-11T17:57:57.983Z,96881.61
2023-04-11T18:00:26.747Z,96882.30
2023-04-11T18:02:57.898Z,96880.98
2023-04-11T18:05:28.414Z,96879.52
2023-04-11T18:07:58.940Z,96882.70
2023-04-11T18:10:28.570Z,96880.98
2023-04-11T18:12:58.207Z,96883.56
2023-04-11T18:15:28.022Z,96885.64
2023-04-11T18:17:56.528Z,96886.72
2023-04-11T18:20:25.062Z,96885.95
2023-04-11T18:22:56.986Z,96889.67
2023-04-11T18:25:25.765Z,96884.83
2023-04-11T18:27:54.116Z,96888.42
2023-04-11T18:30:22.438Z,96891.89
2023-04-11T18:32:54.480Z,96892.09
2023-04-11T18:35:26.928Z,96890.07
2023-04-11T18:37:57.664Z,96886.80
2023-04-11T18:40:26.653Z,96881.23
2023-04-11T18:42:57.076Z,96876.50
2023-04-11T18:45:26.653Z,96873.64
2023-04-11T18:47:58.382Z,96871.16
2023-04-11T18:50:30.805Z,96878.40
2023-04-11T18:53:03.946Z,96882.08
2023-04-11T18:55:35.105Z,96888.23
2023-04-11T18:58:06.123Z,96886.76
2023-04-11T19:00:36.557Z,96887.23
2023-04-11T19:03:05.327Z,96886.09
2023-04-11T19:05:36.725Z,96885.91
2023-04-11T19:08:05.098Z,96882.17
2023-04-11T19:10:33.361Z,96879.18
2023-04-11T19:13:01.637Z,96873.65
2023-04-11T19:15:30.608Z,96870.60
2023-04-11T19:17:59.854Z,96865.36
2023-04-11T19:20:29.589Z,96862.64
2023-04-11T19:22:57.749Z,96861.62
2023-04-11T19:25:27.222Z,96863.13
2023-04-11T19:27:55.793Z,96860.01
2023-04-11T19:30:24.791Z,96860.03
2023-04-11T19:32:53.059Z,96858.01
2023-04-11T19:35:24.420Z,96860.23
2023-04-11T19:37:53.690Z,96851.48
2023-04-11T19:40:24.831Z,96851.41
2023-04-11T19:42:53.369Z,96846.33
2023-04-11T19:45:22.746Z,96848.19
2023-04-11T19:47:51.669Z,96845.23
2023-04-11T19:50:23.080Z,96840.64
2023-04-11T19:52:57.020Z,96841.68
2023-04-11T19:55:25.508Z,96841.67
2023-04-11T19:57:56.001Z,96838.79
2023-04-11T20:00:26.537Z,96836.05
2023-04-11T20:02:55.714Z,96834.61
2023-04-11T20:05:24.074Z,96833.02
2023-04-11T20:07:52.154Z,96837.13
2023-04-11T20:10:20.293Z,96836.59
2023-04-11T20:12:48.265Z,96830.76
2023-04-11T20:15:16.521Z,96827.60
2023-04-11T20:17:46.314Z,96825.66
2023-04-11T20:20:15.992Z,96824.88
2023-04-11T20:22:45.145Z,96828.42
2023-04-11T20:25:14.165Z,96827.39
2023-04-11T20:27:43.213Z,96827.20
2023-04-11T20:30:12.269Z,96826.13
2023-04-11T20:32:41.582Z,96829.15
2023-04-11T20:35:14.358Z,96827.38
2023-04-11T20:37:43.674Z,96824.05
2023-04-11T20:40:13.960Z,96821.38
2023-04-11T20:42:45.448Z,96817.42
2023-04-11T20:45:16.225Z,96819.09
2023-04-11T20:47:50.421Z,96818.91
2023-04-11T20:50:19.457Z,96814.17
2023-04-11T20:52:51.383Z,96813.58
2023-04-11T20:55:20.997Z,96812.31
2023-04-11T20:57:49.191Z,96810.29
2023-04-11T21:00:18.541Z,96809.16
2023-04-11T21:02:50.207Z,96809.46
2023-04-11T21:05:25.049Z,96812.66
2023-04-11T21:07:55.435Z,96808.52
2023-04-11T21:10:24.789Z,96809.22
2023-04-11T21:12:54.165Z,96811.05
2023-04-11T21:15:22.771Z,96812.12
2023-04-11T21:17:50.895Z,96813.44
2023-04-11T21:20:20.076Z,96812.98
2023-04-11T21:22:53.164Z,96814.27
2023-04-11T21:25:22.214Z,96814.48
2023-04-11T21:27:50.325Z,96808.85
2023-04-11T21:30:18.648Z,96808.13
2023-04-11T21:32:47.175Z,96807.09
2023-04-11T21:35:15.512Z,96798.45
2023-04-11T21:37:43.575Z,96800.86
2023-04-11T21:40:12.801Z,96797.46
2023-04-11T21:42:41.024Z,96798.00
2023-04-11T21:45:09.344Z,96795.46
2023-04-11T21:47:37.848Z,96793.93
2023-04-11T21:50:08.000Z,96791.67
2023-04-11T21:52:35.910Z,96789.05
2023-04-11T21:55:06.474Z,96782.58
2023-04-11T21:57:36.094Z,96786.24
2023-04-11T22:00:08.044Z,96782.20
2023-04-11T22:02:42.957Z,96780.88
2023-04-11T22:05:12.984Z,96777.84
2023-04-11T22:07:46.924Z,96771.56
2023-04-11T22:10:23.606Z,96768.00
2023-04-11T22:12:54.469Z,96762.30
2023-04-11T22:15:24.647Z,96759.06
2023-04-11T22:17:54.989Z,96760.52
2023-04-11T22:20:23.090Z,96755.26
2023-04-11T22:22:51.047Z,96755.14
2023-04-11T22:25:22.519Z,96754.98
2023-04-11T22:27:54.569Z,96751.91
2023-04-11T22:30:23.526Z,96749.24
2023-04-11T22:32:54.277Z,96748.64
2023-04-11T22:35:24.934Z,96747.55
2023-04-11T22:37:55.462Z,96748.64
2023-04-11T22:40:24.270Z,96743.46
2023-04-11T22:42:53.192Z,96739.95
2023-04-11T22:45:22.991Z,96738.08
2023-04-11T22:47:54.338Z,96734.16
2023-04-11T22:50:23.444Z,96733.02
2023-04-11T22:52:51.591Z,96730.59
2023-04-11T22:55:21.250Z,96730.08
2023-04-11T22:57:49.492Z,96726.02
2023-04-11T23:00:18.968Z,96725.55
2023-04-11T23:02:47.157Z,96721.25
2023-04-11T23:05:16.881Z,96715.61
2023-04-11T23:07:45.370Z,96712.51
2023-04-11T23:10:17.383Z,96710.17
2023-04-11T23:12:45.463Z,96703.40
2023-04-11T23:15:13.524Z,96701.38
2023-04-11T23:17:41.708Z,96697.33
2023-04-11T23:20:13.853Z,96696.89
2023-04-11T23:22:44.030Z,96695.95
2023-04-11T23:25:15.247Z,96690.62
2023-04-11T23:27:44.640Z,96688.47
2023-04-11T23:30:14.989Z,96685.11
2023-04-11T23:32:43.264Z,96679.70
2023-04-11T23:35:11.904Z,96672.93
2023-04-11T23:37:41.057Z,96670.70
2023-04-11T23:40:11.084Z,96666.30
2023-04-11T23:42:41.147Z,96664.83
2023-04-11T23:45:11.335Z,96661.03
2023-04-11T23:47:39.322Z,96659.37
2023-04-11T23:50:09.179Z,96659.01
2023-04-11T23:52:37.084Z,96660.54
2023-04-11T23:55:05.545Z,96658.40
2023-04-11T23:57:33.623Z,96655.76
